Home > Products > Valid Products > TAF

000
FTUS45 KPIH 272326
TAFBYI
TAF
KBYI 272326Z 2800/2824 27015G25KT P6SM VCSH BKN110
     FM280200 21010G20KT P6SM SKC
     FM280800 20010KT P6SM SKC
     FM281800 27011KT P6SM FEW060=



000
FTUS45 KPIH 272326
TAFSUN
TAF
KSUN 272326Z 2800/2824 27008KT P6SM VCSH SCT120
     FM280300 31010KT P6SM SKC
     FM281800 19010KT P6SM SCT060
      AMD LTD TO CLD VIS AND WIND 2806/2814=



000
FTUS45 KPIH 272326
TAFPIH
TAF
KPIH 272326Z 2800/2824 26015G25KT P6SM SCT060
     FM280400 21011KT P6SM SKC
     FM281600 23015G25KT P6SM FEW060=



000
FTUS45 KPIH 272326
TAFIDA
TAF
KIDA 272326Z 2800/2824 23015G25KT P6SM SCT080 BKN090
     FM280300 20010KT P6SM FEW040
     FM281600 21015KT P6SM FEW060=



000
FTUS45 KPIH 271928 AAA
TAFPIH
TAF AMD
KPIH 271928Z 2719/2818 26015G25KT P6SM VCTS FEW050CB FEW140
     FM280000 25020G30KT P6SM FEW130
     FM280300 22015KT P6SM SKC
     FM280900 20008KT P6SM SKC
     FM281500 23015KT P6SM SKC=



000
FTUS45 KPIH 262326
TAFIDA
TAF
KIDA 262326Z 2700/2724 VRB06KT P6SM VCTS SCT090CB
     FM270300 18006KT P6SM FEW040 SCT060
     FM271500 20010KT P6SM SCT060
     FM271800 20018G28KT P6SM SCT060=



000
FTUS45 KPIH 262326
TAFBYI
TAF
KBYI 262326Z 2700/2724 22011KT P6SM SCT060
     FM270300 21008KT P6SM SKC
     FM271200 20006KT P6SM SCT050 SCT070
     FM271600 26015G25KT P6SM SCT070=



000
FTUS45 KPIH 262326
TAFPIH
TAF
KPIH 262326Z 2700/2724 26011KT P6SM VCTS SCT060CB
     FM270300 25010KT P6SM FEW060
     FM270500 19006KT P6SM FEW050
     FM271500 23010KT P6SM FEW060
     FM271800 22020G30KT P6SM FEW060=



000
FTUS45 KPIH 262326
TAFSUN
TAF
KSUN 262326Z 2700/2724 VRB06KT P6SM VCTS BKN050CB BKN080
     FM270300 31008KT P6SM FEW040
     FM271800 12011KT P6SM FEW040
      AMD LTD TO CLD VIS AND WIND 2706/2714=



000
FTUS45 KPIH 261126
TAFBYI
TAF
KBYI 261126Z 2612/2712 VRB05KT P6SM SKC
     FM261800 27011KT P6SM FEW050
     FM262100 27012G22KT P6SM SCT060
     FM270200 22011KT P6SM SKC=



000
FTUS45 KPIH 261126
TAFIDA
TAF
KIDA 261126Z 2612/2712 VRB05KT P6SM SCT025 SCT080
     FM261800 22011KT P6SM SCT060
     FM262100 22012KT P6SM VCTS BKN060CB
     FM270400 19007KT P6SM SCT060=



000
FTUS45 KPIH 261126
TAFSUN
TAF
KSUN 261126Z 2612/2712 31009KT P6SM SCT070
     FM261800 14009KT P6SM -SHRA VCTS BKN030CB BKN050
     FM270000 VRB05KT P6SM VCSH BKN050
     FM270400 VRB05KT P6SM SCT050
      AMD LTD TO CLD VIS AND WIND TIL 261400=



000
FTUS45 KPIH 261126
TAFPIH
TAF
KPIH 261126Z 2612/2712 VRB05KT P6SM FEW025 FEW070
     FM261800 26011KT P6SM SCT060
     FM262100 26012KT P6SM VCTS BKN060CB
     FM270200 19008KT P6SM SCT060=



000
FTUS45 KPIH 260520
TAFSUN
TAF
KSUN 260520Z 2606/2706 31009KT P6SM VCSH SCT070
     FM261800 14009KT P6SM -SHRA VCTS BKN030CB BKN050
     FM270000 VRB06KT P6SM VCSH BKN050
      AMD LTD TO CLD VIS AND WIND TIL 271400=



000
FTUS45 KPIH 260017 AAB
TAFPIH
TAF AMD
KPIH 260017Z 2600/2624 VRB06KT P6SM -SHRA VCTS BKN060CB BKN080
      TEMPO 2600/2601 TS
     FM260200 20008KT P6SM VCSH SCT060
     FM260900 18006KT P6SM FEW025 FEW040
     FM261800 25012G22KT P6SM VCSH SCT050=



000
FTUS45 KPIH 260005 AAA
TAFIDA
TAF AMD
KIDA 260005Z 2600/2624 16015KT P6SM VCTS BKN060CB BKN080
     FM260300 VRB06KT P6SM VCSH SCT060
     FM260900 15006KT P6SM FEW025 FEW040
     FM261800 22012G22KT P6SM SCT050=



000
FTUS45 KPIH 251720
TAFSUN
TAF
KSUN 251720Z 2518/2618 13008KT P6SM -SHRA VCTS SCT050CB
     FM252000 25010KT P6SM VCTS SCT050CB SCT080
     FM252200 31015KT P6SM VCTS BKN060CB
     FM260200 31008KT P6SM VCSH FEW040=



000
FTUS45 KPIH 251720
TAFIDA
TAF
KIDA 251720Z 2518/2618 23010G20KT P6SM VCTS SCT008 BKN025CB OVC050
     FM251900 24015G25KT P6SM VCTS BKN050CB BKN140
     FM260100 33008KT P6SM -SHRA VCTS BKN060CB BKN140
     FM260300 VRB05KT P6SM VCSH BKN060 BKN140
     FM260900 15006KT P6SM SCT060 BKN140=



000
FTUS45 KPIH 251720
TAFPIH
TAF
KPIH 251720Z 2518/2618 25010KT P6SM SCT035 BKN050 BKN130
     FM252000 24010G20KT P6SM VCTS BKN050CB
     FM252200 24010KT P6SM VCTS SCT060CB
     FM260200 22008KT P6SM VCSH SCT060
     FM260900 18006KT P6SM FEW040=



000
FTUS45 KPIH 251359 AAB
TAFIDA
TAF AMD
KIDA 251359Z 2514/2612 VRB04KT P6SM VCSH BKN035 BKN050
     FM251700 21010G20KT P6SM VCSH BKN040
     FM252100 22012G22KT P6SM VCTS SCT030 BKN040CB
     FM260200 21007KT P6SM VCSH SCT050 BKN100=



000
FTUS45 KPIH 251225 AAA
TAFIDA
TAF AMD
KIDA 251225Z 2512/2612 20008KT P6SM VCSH BKN030 BKN050
     FM251700 21010G20KT P6SM VCSH BKN040
     FM252100 22012G22KT P6SM VCTS SCT030 BKN040CB
     FM260200 21007KT P6SM VCSH SCT050 BKN100=



000
FTUS45 KPIH 251120
TAFPIH
TAF
KPIH 251120Z 2512/2612 22008KT P6SM BKN045 BKN090
     FM251600 25011KT P6SM SCT045 BKN080
     FM252000 25014G22KT P6SM VCTS SCT050CB BKN080
     FM260200 23009KT P6SM SCT050=



000
FTUS45 KPIH 251120
TAFBYI
TAF
KBYI 251120Z 2512/2612 24007KT P6SM BKN100
     FM251600 27012KT P6SM VCSH SCT050 BKN200
     FM252020 27012G20KT P6SM VCTS SCT040 BKN070CB
     FM260200 22007KT P6SM SCT050=



000
FTUS45 KPIH 251120
TAFIDA
TAF
KIDA 251120Z 2512/2612 20008KT P6SM VCSH SCT040 BKN080
     FM251700 21010G20KT P6SM VCSH BKN040
     FM252100 22012G22KT P6SM VCTS SCT030 BKN040CB
     FM260200 21007KT P6SM VCSH SCT050 BKN100=



000
FTUS45 KPIH 251120
TAFSUN
TAF
KSUN 251120Z 2512/2612 31006KT P6SM VCSH SCT060 BKN080
     FM251700 13008KT P6SM VCSH SCT040 BKN080
     FM252200 19010KT P6SM VCTS SCT030CB BKN060
     FM260300 31009KT P6SM SCT050
      AMD LTD TO CLD VIS AND WIND TIL 251400=



000
FTUS45 KPIH 250203 AAA
TAFIDA
TAF AMD
KIDA 250203Z 2502/2524 12009KT P6SM VCTS SCT050CB BKN100
      TEMPO 2502/2504 VRB15G25KT -TSRA SCT020 BKN040CB
     FM250400 20008KT P6SM SCT040 BKN080
     FM251700 21010G20KT P6SM VCSH BKN040
     FM252100 22012G22KT P6SM VCTS SCT030 BKN040CB=



    US Dept of Commerce
    National Oceanic and Atmospheric Administration
    National Weather Service
    1325 East West Highway
    Silver Spring, MD 20910
    Page Author: NWS Internet Services Team
Disclaimer
Information Quality
Credits
Glossary
Privacy Policy
Freedom of Information Act (FOIA)
About Us
Career Opportunities